Time;durP1;ratioP1;P1;durP2;ratioP2;P2;SDS_P1;SDS_P2;PMS_P1;PMS_P2;Temp;Humidity;BMP_temperature;BMP_pressure;BME280_temperature;BME280_humidity;BME280_pressure;Samples;Min_cycle;Max_cycle;Signal;HPM_P1;HPM_P2
2021/11/22 00:00:41;;;;;;;0.38;0.10;;;;;;;;;;5033983;28;20067;-64
2021/11/22 00:03:07;;;;;;;1.20;0.15;;;;;;;;;;5034066;28;20054;-64
2021/11/22 00:05:32;;;;;;;0.90;0.20;;;;;;;;;;5033983;28;20113;-64
2021/11/22 00:07:58;;;;;;;0.20;0.10;;;;;;;;;;5033923;28;20461;-64
2021/11/22 00:10:23;;;;;;;1.75;0.30;;;;;;;;;;5034117;28;20052;-65
2021/11/22 00:12:49;;;;;;;0.50;0.10;;;;;;;;;;5034051;28;20528;-65
2021/11/22 00:15:15;;;;;;;1.05;0.15;;;;;;;;;;5033622;28;20031;-64
2021/11/22 00:17:40;;;;;;;1.20;0.40;;;;;;;;;;5033883;28;20049;-64
2021/11/22 00:20:08;;;;;;;0.63;0.13;;;;;;;;;;5033230;28;20053;-65
2021/11/22 00:22:33;;;;;;;0.52;0.20;;;;;;;;;;5033997;28;20524;-64
2021/11/22 00:24:58;;;;;;;0.22;0.10;;;;;;;;;;5033678;28;20109;-64
2021/11/22 00:27:24;;;;;;;0.43;0.10;;;;;;;;;;5033740;28;20014;-64
2021/11/22 00:29:49;;;;;;;1.65;0.20;;;;;;;;;;5033829;28;20032;-65
2021/11/22 00:32:14;;;;;;;0.68;0.20;;;;;;;;;;5033487;28;20029;-64
2021/11/22 00:34:43;;;;;;;0.55;0.47;;;;;;;;;;5033524;28;20028;-64
2021/11/22 00:37:13;;;;;;;2.15;0.35;;;;;;;;;;5033347;28;20017;-64
2021/11/22 00:39:39;;;;;;;1.33;0.20;;;;;;;;;;5033456;28;20358;-65
2021/11/22 00:42:06;;;;;;;1.17;0.43;;;;;;;;;;5033425;28;20024;-65
2021/11/22 00:44:31;;;;;;;0.25;0.10;;;;;;;;;;5032869;28;20045;-64
2021/11/22 00:46:56;;;;;;;1.38;0.20;;;;;;;;;;5033374;28;20602;-63
2021/11/22 00:49:21;;;;;;;1.60;0.22;;;;;;;;;;5033499;28;20453;-65
2021/11/22 00:51:46;;;;;;;0.63;0.08;;;;;;;;;;5033258;28;20022;-64
2021/11/22 00:54:12;;;;;;;1.30;0.13;;;;;;;;;;5032905;28;20045;-65
2021/11/22 00:56:37;;;;;;;2.05;0.20;;;;;;;;;;5033402;28;20021;-63
2021/11/22 00:59:02;;;;;;;1.52;0.28;;;;;;;;;;5032816;28;20473;-65
2021/11/22 01:01:27;;;;;;;0.63;0.20;;;;;;;;;;5033588;28;20435;-64
2021/11/22 01:03:53;;;;;;;0.80;0.10;;;;;;;;;;5032935;28;20128;-64
2021/11/22 01:06:18;;;;;;;0.95;0.20;;;;;;;;;;5032772;28;20021;-63
2021/11/22 01:08:43;;;;;;;1.00;0.30;;;;;;;;;;5033324;28;20040;-66
2021/11/22 01:11:08;;;;;;;0.63;0.22;;;;;;;;;;5032912;28;20017;-64
2021/11/22 01:13:34;;;;;;;0.47;0.30;;;;;;;;;;5033206;28;20059;-65
2021/11/22 01:15:59;;;;;;;1.60;0.30;;;;;;;;;;5033076;28;20346;-63
2021/11/22 01:18:24;;;;;;;1.00;0.10;;;;;;;;;;5032879;28;20021;-64
2021/11/22 01:20:49;;;;;;;0.20;0.10;;;;;;;;;;5032787;28;20262;-64
2021/11/22 01:23:15;;;;;;;0.85;0.20;;;;;;;;;;5032569;28;20049;-63
2021/11/22 01:25:41;;;;;;;0.68;0.10;;;;;;;;;;5033082;28;20100;-66
2021/11/22 01:28:06;;;;;;;0.60;0.17;;;;;;;;;;5032746;28;20075;-64
2021/11/22 01:30:31;;;;;;;0.30;0.15;;;;;;;;;;5033046;28;20025;-65
2021/11/22 01:32:57;;;;;;;0.43;0.20;;;;;;;;;;5032673;28;20026;-63
2021/11/22 01:35:23;;;;;;;1.13;0.20;;;;;;;;;;5032562;28;20022;-64
2021/11/22 01:37:48;;;;;;;0.93;0.10;;;;;;;;;;5032671;28;20013;-64
2021/11/22 01:40:15;;;;;;;0.63;0.20;;;;;;;;;;5032370;28;20033;-65
2021/11/22 01:42:41;;;;;;;0.40;0.10;;;;;;;;;;5031700;28;20014;-64
2021/11/22 01:45:07;;;;;;;0.73;0.15;;;;;;;;;;5032643;28;20473;-65
2021/11/22 01:47:32;;;;;;;0.57;0.30;;;;;;;;;;5032667;28;20013;-64
2021/11/22 01:49:57;;;;;;;1.20;0.20;;;;;;;;;;5032702;28;20067;-64
2021/11/22 01:52:22;;;;;;;1.17;0.20;;;;;;;;;;5032478;28;20459;-64
2021/11/22 01:54:49;;;;;;;0.45;0.20;;;;;;;;;;5034422;28;20261;-65
2021/11/22 01:57:15;;;;;;;1.42;0.13;;;;;;;;;;5036169;28;20029;-65
2021/11/22 01:59:40;;;;;;;0.50;0.20;;;;;;;;;;5036268;28;20021;-64
2021/11/22 02:02:05;;;;;;;0.20;0.10;;;;;;;;;;5044578;22;20045;-64
2021/11/22 02:04:31;;;;;;;0.22;0.10;;;;;;;;;;5036476;28;20105;-65
2021/11/22 02:06:56;;;;;;;0.10;0.05;;;;;;;;;;5036367;28;20053;-64
2021/11/22 02:09:21;;;;;;;0.77;0.33;;;;;;;;;;5036067;28;20068;-65
2021/11/22 02:11:46;;;;;;;0.50;0.20;;;;;;;;;;5036401;28;20734;-64
2021/11/22 02:14:11;;;;;;;0.47;0.10;;;;;;;;;;5036079;28;20010;-65
2021/11/22 02:16:36;;;;;;;0.63;0.20;;;;;;;;;;5035991;28;20701;-64
2021/11/22 02:19:05;;;;;;;0.75;0.20;;;;;;;;;;5035942;28;20380;-64
2021/11/22 02:21:30;;;;;;;0.73;0.15;;;;;;;;;;5036145;28;20059;-64
2021/11/22 02:23:56;;;;;;;1.30;0.20;;;;;;;;;;5035746;28;20018;-65
2021/11/22 02:26:21;;;;;;;1.55;0.20;;;;;;;;;;5036050;28;20064;-65
2021/11/22 02:28:46;;;;;;;0.50;0.20;;;;;;;;;;5036161;28;20032;-64
2021/11/22 02:31:12;;;;;;;0.95;0.10;;;;;;;;;;5034486;28;20730;-64
2021/11/22 02:33:37;;;;;;;1.42;0.20;;;;;;;;;;5035824;28;20376;-65
2021/11/22 02:36:03;;;;;;;0.77;0.10;;;;;;;;;;5035587;28;20108;-65
2021/11/22 02:38:29;;;;;;;1.50;0.30;;;;;;;;;;5039003;28;20332;-64
2021/11/22 02:40:55;;;;;;;1.23;0.10;;;;;;;;;;5055385;28;20017;-64
2021/11/22 02:43:21;;;;;;;0.63;0.10;;;;;;;;;;5055560;28;20096;-65
2021/11/22 02:45:46;;;;;;;0.98;0.10;;;;;;;;;;5055599;28;20021;-65
2021/11/22 02:48:12;;;;;;;0.30;0.10;;;;;;;;;;5055483;28;20013;-64
2021/11/22 02:50:37;;;;;;;0.43;0.22;;;;;;;;;;5055254;28;20021;-64
2021/11/22 02:53:03;;;;;;;0.55;0.20;;;;;;;;;;5055406;28;20071;-65
2021/11/22 02:55:28;;;;;;;0.60;0.30;;;;;;;;;;5055532;28;20441;-64
2021/11/22 02:57:53;;;;;;;1.17;0.52;;;;;;;;;;5055065;28;20063;-64
2021/11/22 03:00:28;;;;;;;1.60;0.20;;;;;;;;;;5055300;28;20017;-65
2021/11/22 03:02:54;;;;;;;0.70;0.20;;;;;;;;;;5055041;28;20041;-65
2021/11/22 03:05:19;;;;;;;1.05;0.17;;;;;;;;;;5053888;28;20104;-65
2021/11/22 03:07:45;;;;;;;0.22;0.20;;;;;;;;;;5054412;28;20380;-64
2021/11/22 03:10:12;;;;;;;0.95;0.10;;;;;;;;;;5054988;28;20041;-65
2021/11/22 03:12:38;;;;;;;1.52;0.10;;;;;;;;;;5054857;28;20039;-65
2021/11/22 03:15:04;;;;;;;0.80;0.10;;;;;;;;;;5054590;28;20017;-64
2021/11/22 03:17:29;;;;;;;0.38;0.10;;;;;;;;;;5055196;28;20468;-64
2021/11/22 03:19:54;;;;;;;0.32;0.10;;;;;;;;;;5055005;28;20043;-65
2021/11/22 03:22:20;;;;;;;0.43;0.17;;;;;;;;;;5054911;28;20017;-65
2021/11/22 03:24:45;;;;;;;2.00;0.63;;;;;;;;;;5054945;28;20511;-64
2021/11/22 03:27:11;;;;;;;0.50;0.10;;;;;;;;;;5054471;28;20021;-64
2021/11/22 03:29:36;;;;;;;0.38;0.10;;;;;;;;;;5054815;28;20017;-65
2021/11/22 03:32:01;;;;;;;0.98;0.20;;;;;;;;;;5054604;28;20043;-65
2021/11/22 03:34:28;;;;;;;0.20;0.10;;;;;;;;;;5054534;28;20465;-65
2021/11/22 03:36:54;;;;;;;0.85;0.10;;;;;;;;;;5054284;28;20494;-64
2021/11/22 03:39:25;;;;;;;1.13;0.10;;;;;;;;;;5044076;28;20021;-65
2021/11/22 03:41:51;;;;;;;0.45;0.00;;;;;;;;;;5034805;28;20017;-64
2021/11/22 03:44:17;;;;;;;0.30;0.10;;;;;;;;;;5034610;28;20484;-64
2021/11/22 03:46:44;;;;;;;1.50;0.20;;;;;;;;;;5034495;28;20491;-64
2021/11/22 03:49:09;;;;;;;0.55;0.10;;;;;;;;;;5034238;28;20052;-64
2021/11/22 03:51:35;;;;;;;0.45;0.28;;;;;;;;;;5034297;28;20045;-64
2021/11/22 03:54:00;;;;;;;0.75;0.22;;;;;;;;;;5034379;28;20345;-63
2021/11/22 03:56:25;;;;;;;0.30;0.10;;;;;;;;;;5034370;28;20503;-64
2021/11/22 03:58:50;;;;;;;0.40;0.22;;;;;;;;;;5034044;28;20279;-64
2021/11/22 04:01:16;;;;;;;0.10;0.08;;;;;;;;;;5033937;28;20037;-65
2021/11/22 04:03:41;;;;;;;1.02;0.10;;;;;;;;;;5034267;28;20021;-64
2021/11/22 04:06:06;;;;;;;1.13;0.30;;;;;;;;;;5033965;28;20067;-65
2021/11/22 04:08:32;;;;;;;0.88;0.28;;;;;;;;;;5034132;28;20037;-64
2021/11/22 04:10:57;;;;;;;1.58;0.30;;;;;;;;;;5033762;28;20357;-65
2021/11/22 04:13:22;;;;;;;0.90;0.20;;;;;;;;;;5034066;28;20045;-64
2021/11/22 04:15:47;;;;;;;0.93;0.20;;;;;;;;;;5033751;28;20116;-64
2021/11/22 04:18:13;;;;;;;0.70;0.20;;;;;;;;;;5032967;28;20068;-65
2021/11/22 04:20:38;;;;;;;0.20;0.00;;;;;;;;;;5033870;28;20251;-65
2021/11/22 04:23:04;;;;;;;0.95;0.30;;;;;;;;;;5033625;28;20028;-64
2021/11/22 04:25:29;;;;;;;0.15;0.00;;;;;;;;;;5033839;28;20029;-64
2021/11/22 04:27:55;;;;;;;0.32;0.00;;;;;;;;;;5033392;28;20346;-65
2021/11/22 04:30:20;;;;;;;0.95;0.13;;;;;;;;;;5033616;28;20590;-64
2021/11/22 04:32:46;;;;;;;1.38;0.20;;;;;;;;;;5033728;28;20064;-65
2021/11/22 04:35:12;;;;;;;0.73;0.10;;;;;;;;;;5033476;28;20044;-63
2021/11/22 04:37:38;;;;;;;0.65;0.20;;;;;;;;;;5033436;28;20021;-64
2021/11/22 04:40:04;;;;;;;0.57;0.10;;;;;;;;;;5049645;28;20104;-65
2021/11/22 04:42:30;;;;;;;0.75;0.13;;;;;;;;;;5053381;28;20025;-64
2021/11/22 04:44:55;;;;;;;1.08;0.35;;;;;;;;;;5053112;28;20021;-64
2021/11/22 04:47:20;;;;;;;1.95;0.43;;;;;;;;;;5052999;28;20055;-65
2021/11/22 04:49:47;;;;;;;0.15;0.03;;;;;;;;;;5053376;28;20464;-64
2021/11/22 04:52:13;;;;;;;1.00;0.30;;;;;;;;;;5053120;28;20025;-64
2021/11/22 04:54:39;;;;;;;0.22;0.00;;;;;;;;;;5053271;28;20075;-64
2021/11/22 04:57:04;;;;;;;1.17;0.40;;;;;;;;;;5053215;28;20063;-65
2021/11/22 04:59:30;;;;;;;1.08;0.05;;;;;;;;;;5052930;28;20025;-64
2021/11/22 05:01:55;;;;;;;0.60;0.20;;;;;;;;;;5053104;28;20439;-64
2021/11/22 05:04:20;;;;;;;0.27;0.27;;;;;;;;;;5052996;28;20017;-64
2021/11/22 05:06:46;;;;;;;0.63;0.10;;;;;;;;;;5053256;28;20282;-64
2021/11/22 05:09:11;;;;;;;0.57;0.30;;;;;;;;;;5052931;28;20047;-64
2021/11/22 05:11:36;;;;;;;0.93;0.57;;;;;;;;;;5052808;28;20038;-65
2021/11/22 05:14:01;;;;;;;0.70;0.10;;;;;;;;;;5052554;28;20116;-65
2021/11/22 05:16:27;;;;;;;0.65;0.43;;;;;;;;;;5052743;28;20372;-64
2021/11/22 05:18:52;;;;;;;1.42;0.20;;;;;;;;;;5052816;28;20040;-66
2021/11/22 05:21:17;;;;;;;0.90;0.10;;;;;;;;;;5052730;28;20017;-64
2021/11/22 05:23:42;;;;;;;0.57;0.17;;;;;;;;;;5052793;28;20488;-65
2021/11/22 05:26:08;;;;;;;0.80;0.13;;;;;;;;;;5053027;28;20396;-64
2021/11/22 05:28:33;;;;;;;1.00;0.50;;;;;;;;;;5052849;28;20025;-66
2021/11/22 05:30:58;;;;;;;1.00;0.28;;;;;;;;;;5056579;28;20468;-63
2021/11/22 05:33:23;;;;;;;0.80;0.20;;;;;;;;;;5056791;28;20020;-65
2021/11/22 05:35:49;;;;;;;0.13;0.10;;;;;;;;;;5057015;28;20461;-65
2021/11/22 05:38:14;;;;;;;0.68;0.10;;;;;;;;;;5054885;28;20024;-66
2021/11/22 05:40:39;;;;;;;0.60;0.10;;;;;;;;;;5036891;28;20047;-64
2021/11/22 05:43:04;;;;;;;1.38;0.28;;;;;;;;;;5036713;28;20021;-63
2021/11/22 05:45:30;;;;;;;0.15;0.08;;;;;;;;;;5036792;28;20036;-65
2021/11/22 05:47:55;;;;;;;1.27;0.10;;;;;;;;;;5036458;28;20014;-63
2021/11/22 05:50:22;;;;;;;0.63;0.10;;;;;;;;;;5036284;28;20346;-66
2021/11/22 05:52:52;;;;;;;0.28;0.10;;;;;;;;;;5036833;28;20097;-64
2021/11/22 05:55:29;;;;;;;0.52;0.10;;;;;;;;;;5036566;28;20032;-65
2021/11/22 05:57:54;;;;;;;0.70;0.20;;;;;;;;;;5036577;28;20104;-64
2021/11/22 06:00:20;;;;;;;0.17;0.15;;;;;;;;;;5036038;28;20488;-65
2021/11/22 06:02:45;;;;;;;0.30;0.00;;;;;;;;;;5036513;28;20088;-64
2021/11/22 06:05:10;;;;;;;0.28;0.10;;;;;;;;;;5036113;28;20017;-65
2021/11/22 06:07:38;;;;;;;0.65;0.20;;;;;;;;;;5036141;28;20091;-64
2021/11/22 06:10:04;;;;;;;0.45;0.20;;;;;;;;;;5036360;28;20095;-64
2021/11/22 06:12:29;;;;;;;1.58;0.20;;;;;;;;;;5036280;28;20060;-64
2021/11/22 06:14:55;;;;;;;0.15;0.10;;;;;;;;;;5036212;28;20029;-64
2021/11/22 06:17:20;;;;;;;0.88;0.20;;;;;;;;;;5036273;28;20100;-64
2021/11/22 06:19:45;;;;;;;0.30;0.10;;;;;;;;;;5036275;28;20025;-64
2021/11/22 06:22:10;;;;;;;1.23;0.10;;;;;;;;;;5035928;28;20028;-65
2021/11/22 06:24:36;;;;;;;0.40;0.10;;;;;;;;;;5035977;28;20076;-63
2021/11/22 06:27:02;;;;;;;0.60;0.10;;;;;;;;;;5035862;28;20025;-65
2021/11/22 06:29:27;;;;;;;0.57;0.10;;;;;;;;;;5035843;28;20018;-65
2021/11/22 06:31:52;;;;;;;0.52;0.20;;;;;;;;;;5035800;28;20067;-65
2021/11/22 06:34:17;;;;;;;1.97;0.20;;;;;;;;;;5035832;28;20477;-63
2021/11/22 06:36:43;;;;;;;1.08;0.10;;;;;;;;;;5035802;28;20255;-65
2021/11/22 06:39:08;;;;;;;0.63;0.13;;;;;;;;;;5044108;28;20368;-64
2021/11/22 06:41:33;;;;;;;1.17;0.20;;;;;;;;;;5054302;28;20021;-65
2021/11/22 06:43:58;;;;;;;0.57;0.13;;;;;;;;;;5055673;28;20388;-63
2021/11/22 06:46:24;;;;;;;0.75;0.20;;;;;;;;;;5055199;28;20376;-64
2021/11/22 06:48:49;;;;;;;0.68;0.20;;;;;;;;;;5055639;28;20025;-65
2021/11/22 06:51:14;;;;;;;1.17;0.10;;;;;;;;;;5055399;28;20471;-63
2021/11/22 06:53:40;;;;;;;0.63;0.20;;;;;;;;;;5042896;28;20026;-64
2021/11/22 06:56:05;;;;;;;1.20;0.10;;;;;;;;;;5036313;28;20028;-63
2021/11/22 06:58:30;;;;;;;0.68;0.13;;;;;;;;;;5042256;28;20025;-65
2021/11/22 07:00:55;;;;;;;1.00;0.20;;;;;;;;;;5048907;28;20427;-64
2021/11/22 07:03:23;;;;;;;1.30;0.40;;;;;;;;;;5034918;28;20273;-64
2021/11/22 07:05:49;;;;;;;0.80;0.20;;;;;;;;;;5032621;28;20784;-64
2021/11/22 07:08:14;;;;;;;1.20;0.10;;;;;;;;;;5031693;28;20543;-66
2021/11/22 07:10:39;;;;;;;1.77;0.40;;;;;;;;;;5034782;28;20037;-64
2021/11/22 07:13:05;;;;;;;0.85;0.22;;;;;;;;;;5038478;28;20418;-65
2021/11/22 07:15:35;;;;;;;1.27;0.22;;;;;;;;;;5030525;28;20021;-65
2021/11/22 07:18:01;;;;;;;0.30;0.20;;;;;;;;;;5031113;28;20505;-66
2021/11/22 07:20:26;;;;;;;0.25;0.10;;;;;;;;;;5031294;28;20117;-64
2021/11/22 07:22:51;;;;;;;0.50;0.15;;;;;;;;;;5030948;28;20035;-64
2021/11/22 07:25:17;;;;;;;0.90;0.17;;;;;;;;;;5028908;28;20025;-66
2021/11/22 07:27:42;;;;;;;0.85;0.50;;;;;;;;;;5030774;28;20068;-65
2021/11/22 07:30:08;;;;;;;0.63;0.20;;;;;;;;;;5031551;28;20036;-64
2021/11/22 07:32:33;;;;;;;0.03;0.00;;;;;;;;;;5031633;28;20473;-65
2021/11/22 07:34:58;;;;;;;0.80;0.13;;;;;;;;;;5031080;28;20100;-65
2021/11/22 07:37:24;;;;;;;0.40;0.20;;;;;;;;;;5028793;28;20033;-64
2021/11/22 07:39:49;;;;;;;0.30;0.10;;;;;;;;;;5030030;28;20025;-64
2021/11/22 07:42:14;;;;;;;1.80;0.20;;;;;;;;;;5031178;28;20021;-65
2021/11/22 07:44:40;;;;;;;0.40;0.17;;;;;;;;;;5029874;28;20035;-64
2021/11/22 07:47:05;;;;;;;2.00;0.20;;;;;;;;;;5028192;28;20413;-64
2021/11/22 07:49:31;;;;;;;0.40;0.17;;;;;;;;;;5027353;28;20076;-65
2021/11/22 07:51:56;;;;;;;0.15;0.00;;;;;;;;;;5029978;28;20480;-65
2021/11/22 07:54:22;;;;;;;0.73;0.10;;;;;;;;;;5030162;28;20017;-63
2021/11/22 07:56:47;;;;;;;0.95;0.20;;;;;;;;;;5030230;28;20388;-65
2021/11/22 07:59:12;;;;;;;0.30;0.17;;;;;;;;;;5030562;28;20037;-66
2021/11/22 08:01:38;;;;;;;1.65;0.10;;;;;;;;;;5029609;28;20052;-65
2021/11/22 08:04:03;;;;;;;0.73;0.40;;;;;;;;;;5033495;28;20014;-64
2021/11/22 08:06:28;;;;;;;1.45;0.20;;;;;;;;;;5032383;28;20040;-65
2021/11/22 08:08:54;;;;;;;1.38;0.20;;;;;;;;;;5032424;28;20650;-65
2021/11/22 08:13:52;;;;;;;0.95;0.30;;;;;;;;;;5039383;28;20029;-65
2021/11/22 08:16:18;;;;;;;0.40;0.13;;;;;;;;;;5031549;28;20029;-65
2021/11/22 08:18:43;;;;;;;0.32;0.10;;;;;;;;;;5033121;28;20025;-66
2021/11/22 08:21:11;;;;;;;0.63;0.10;;;;;;;;;;5036543;28;20063;-65
2021/11/22 08:23:36;;;;;;;0.70;0.15;;;;;;;;;;5028555;28;20169;-65
2021/11/22 08:26:02;;;;;;;0.98;0.22;;;;;;;;;;5028701;28;20136;-65
2021/11/22 08:28:27;;;;;;;1.02;0.20;;;;;;;;;;5030899;28;20021;-66
2021/11/22 08:30:52;;;;;;;0.73;0.13;;;;;;;;;;5032250;28;20472;-66
2021/11/22 08:33:18;;;;;;;1.25;0.38;;;;;;;;;;5031952;28;20044;-65
2021/11/22 08:35:47;;;;;;;0.75;0.47;;;;;;;;;;5029909;28;20084;-65
2021/11/22 08:38:12;;;;;;;1.65;0.28;;;;;;;;;;5035403;28;20033;-66
2021/11/22 08:40:41;;;;;;;0.50;0.10;;;;;;;;;;5024395;28;20026;-65
2021/11/22 08:43:07;;;;;;;1.70;0.20;;;;;;;;;;5033105;28;20449;-65
2021/11/22 08:45:32;;;;;;;1.33;0.28;;;;;;;;;;5035286;28;20538;-66
2021/11/22 08:47:57;;;;;;;0.35;0.20;;;;;;;;;;5043136;28;20044;-66
2021/11/22 08:50:23;;;;;;;1.45;0.30;;;;;;;;;;5053002;28;20051;-65
2021/11/22 08:52:49;;;;;;;0.50;0.20;;;;;;;;;;5050943;28;20376;-65
2021/11/22 08:55:15;;;;;;;0.70;0.20;;;;;;;;;;5030043;28;20096;-65
2021/11/22 08:57:41;;;;;;;0.63;0.05;;;;;;;;;;5031671;28;20021;-66
2021/11/22 09:00:07;;;;;;;1.33;0.20;;;;;;;;;;5040382;28;20031;-66
2021/11/22 09:02:33;;;;;;;0.52;0.10;;;;;;;;;;5039443;28;20049;-65
2021/11/22 09:04:58;;;;;;;0.35;0.20;;;;;;;;;;5029721;28;20432;-65
2021/11/22 09:07:23;;;;;;;0.50;0.20;;;;;;;;;;5030756;28;21512;-65
2021/11/22 09:09:48;;;;;;;1.67;0.17;;;;;;;;;;5034944;28;20317;-65
2021/11/22 09:12:13;;;;;;;0.28;0.10;;;;;;;;;;5031946;28;20041;-65
2021/11/22 09:14:39;;;;;;;1.30;0.55;;;;;;;;;;5033508;28;20056;-66
2021/11/22 09:17:04;;;;;;;0.30;0.10;;;;;;;;;;5046447;28;20021;-66
2021/11/22 09:19:31;;;;;;;1.20;0.20;;;;;;;;;;5034246;28;20383;-64
2021/11/22 09:21:56;;;;;;;0.57;0.13;;;;;;;;;;5037571;28;20017;-66
2021/11/22 09:24:21;;;;;;;0.90;0.40;;;;;;;;;;5028829;28;20051;-66
2021/11/22 09:26:47;;;;;;;0.90;0.17;;;;;;;;;;5036423;28;20021;-66
2021/11/22 09:29:12;;;;;;;0.32;0.10;;;;;;;;;;5036357;28;20370;-66
2021/11/22 09:31:37;;;;;;;1.40;0.22;;;;;;;;;;5032782;28;20017;-66
2021/11/22 09:34:02;;;;;;;0.50;0.10;;;;;;;;;;5030797;28;20388;-66
2021/11/22 09:36:28;;;;;;;0.95;0.20;;;;;;;;;;5032082;28;20442;-67
2021/11/22 09:38:53;;;;;;;1.70;0.40;;;;;;;;;;5043435;28;20766;-66
2021/11/22 09:41:19;;;;;;;0.80;0.20;;;;;;;;;;5031716;28;20033;-66
2021/11/22 09:43:46;;;;;;;0.63;0.20;;;;;;;;;;5031258;28;20095;-68
2021/11/22 09:46:11;;;;;;;1.77;0.20;;;;;;;;;;5031509;28;20490;-67
2021/11/22 09:48:38;;;;;;;1.02;0.10;;;;;;;;;;5031420;28;20037;-66
2021/11/22 09:51:03;;;;;;;1.98;0.50;;;;;;;;;;5024446;28;20037;-67
2021/11/22 09:53:28;;;;;;;0.45;0.10;;;;;;;;;;5032675;28;20018;-68
2021/11/22 09:55:54;;;;;;;2.28;0.13;;;;;;;;;;5035133;28;20025;-67
2021/11/22 09:58:19;;;;;;;1.02;0.30;;;;;;;;;;5031437;28;20029;-67
2021/11/22 10:00:49;;;;;;;1.60;0.20;;;;;;;;;;5032001;28;20018;-67
2021/11/22 10:03:16;;;;;;;0.52;0.17;;;;;;;;;;5035615;28;20275;-67
2021/11/22 10:05:43;;;;;;;1.30;0.38;;;;;;;;;;5033064;28;20017;-67
2021/11/22 10:08:08;;;;;;;1.08;0.20;;;;;;;;;;5031173;28;20105;-69
2021/11/22 10:10:33;;;;;;;1.27;0.22;;;;;;;;;;5029938;28;20108;-67
2021/11/22 10:13:00;;;;;;;0.20;0.10;;;;;;;;;;5031820;28;20369;-67
2021/11/22 10:15:25;;;;;;;0.38;0.20;;;;;;;;;;5037641;28;20817;-68
2021/11/22 10:17:50;;;;;;;0.80;0.20;;;;;;;;;;5015391;28;20026;-67
2021/11/22 10:20:18;;;;;;;0.50;0.20;;;;;;;;;;5017675;28;20018;-67
2021/11/22 10:22:49;;;;;;;1.25;0.38;;;;;;;;;;5015216;28;20018;-66
2021/11/22 10:25:37;;;;;;;0.73;0.20;;;;;;;;;;5037342;28;20075;-67
2021/11/22 10:28:04;;;;;;;0.82;0.47;;;;;;;;;;5038378;28;20071;-66
2021/11/22 10:30:32;;;;;;;0.10;0.10;;;;;;;;;;5023665;28;20018;-66
2021/11/22 10:32:58;;;;;;;2.20;0.28;;;;;;;;;;5043301;28;20028;-67
2021/11/22 10:35:24;;;;;;;1.65;0.20;;;;;;;;;;5047587;28;20341;-66
2021/11/22 10:37:53;;;;;;;1.58;0.30;;;;;;;;;;5047988;28;20111;-65
2021/11/22 10:40:19;;;;;;;1.27;0.10;;;;;;;;;;5035769;28;20022;-66
2021/11/22 10:42:44;;;;;;;0.45;0.15;;;;;;;;;;5036120;28;20352;-66
2021/11/22 10:45:20;;;;;;;1.33;0.30;;;;;;;;;;5035765;28;20048;-65
2021/11/22 10:48:18;;;;;;;1.08;0.20;;;;;;;;;;5035892;28;20266;-66
2021/11/22 10:50:54;;;;;;;0.10;0.10;;;;;;;;;;5013449;28;20100;-65
2021/11/22 10:53:35;;;;;;;1.88;0.30;;;;;;;;;;4993633;28;20037;-69
2021/11/22 10:56:01;;;;;;;0.40;0.10;;;;;;;;;;4993808;28;20077;-64
2021/11/22 10:58:34;;;;;;;0.38;0.20;;;;;;;;;;4993933;28;20027;-65
2021/11/22 11:01:15;;;;;;;0.15;0.13;;;;;;;;;;4993260;28;20031;-66
2021/11/22 11:03:47;;;;;;;1.30;0.25;;;;;;;;;;4993455;28;20018;-65
2021/11/22 11:06:12;;;;;;;1.55;0.40;;;;;;;;;;4993413;28;20030;-64
2021/11/22 11:08:37;;;;;;;0.70;0.10;;;;;;;;;;4993762;28;20045;-66
2021/11/22 11:11:13;;;;;;;1.02;0.30;;;;;;;;;;4993655;28;20105;-65
2021/11/22 11:13:48;;;;;;;1.05;0.10;;;;;;;;;;4993757;28;20134;-65
2021/11/22 11:16:14;;;;;;;1.10;0.20;;;;;;;;;;4977018;28;20465;-67
2021/11/22 11:18:40;;;;;;;0.50;0.30;;;;;;;;;;4993493;28;20026;-66
2021/11/22 11:21:05;;;;;;;0.65;0.13;;;;;;;;;;4993356;28;20070;-66
2021/11/22 11:23:31;;;;;;;0.82;0.10;;;;;;;;;;4993472;28;20471;-66
2021/11/22 11:25:56;;;;;;;0.63;0.40;;;;;;;;;;4993788;28;20027;-65
2021/11/22 11:28:22;;;;;;;0.80;0.20;;;;;;;;;;5014578;28;20238;-66
2021/11/22 11:30:47;;;;;;;0.98;0.20;;;;;;;;;;5015139;28;20092;-65
2021/11/22 11:33:13;;;;;;;0.77;0.20;;;;;;;;;;5014909;28;20021;-67
2021/11/22 11:35:41;;;;;;;1.13;0.30;;;;;;;;;;5015078;28;20029;-66
2021/11/22 11:38:23;;;;;;;1.30;0.20;;;;;;;;;;5014833;28;20036;-66
2021/11/22 11:41:07;;;;;;;0.57;0.30;;;;;;;;;;5025114;28;20032;-66
2021/11/22 11:43:47;;;;;;;1.03;0.20;;;;;;;;;;4995339;28;20018;-66
2021/11/22 11:46:36;;;;;;;0.88;0.10;;;;;;;;;;5029975;28;20022;-67
2021/11/22 11:49:09;;;;;;;0.55;0.20;;;;;;;;;;5034735;28;20036;-66
2021/11/22 11:51:42;;;;;;;0.73;0.40;;;;;;;;;;5033105;28;20029;-65
2021/11/22 11:54:09;;;;;;;1.95;0.17;;;;;;;;;;5034348;28;20037;-67
2021/11/22 11:56:46;;;;;;;1.63;0.30;;;;;;;;;;5034206;28;20021;-66
2021/11/22 11:59:18;;;;;;;0.85;0.10;;;;;;;;;;5034192;28;20025;-65
2021/11/22 12:01:53;;;;;;;0.52;0.10;;;;;;;;;;5040270;28;20044;-66
2021/11/22 12:04:19;;;;;;;0.05;0.05;;;;;;;;;;5054116;28;20067;-66
2021/11/22 12:06:45;;;;;;;0.43;0.10;;;;;;;;;;5054287;28;20048;-65
2021/11/22 12:09:29;;;;;;;1.42;0.40;;;;;;;;;;5053676;28;20518;-66
2021/11/22 12:11:57;;;;;;;0.40;0.20;;;;;;;;;;5054089;28;20067;-65
2021/11/22 12:14:41;;;;;;;1.52;0.40;;;;;;;;;;5053935;28;20037;-66
2021/11/22 12:17:06;;;;;;;1.35;0.10;;;;;;;;;;5053758;28;20052;-66
2021/11/22 12:19:38;;;;;;;0.70;0.10;;;;;;;;;;5053792;28;20068;-66
2021/11/22 12:22:25;;;;;;;0.20;0.10;;;;;;;;;;5052389;28;20453;-66
2021/11/22 12:24:50;;;;;;;0.65;0.15;;;;;;;;;;5053590;28;20017;-65
2021/11/22 12:27:27;;;;;;;1.90;0.43;;;;;;;;;;5053643;28;20044;-65
2021/11/22 12:29:52;;;;;;;1.23;0.30;;;;;;;;;;5053539;28;20931;-66
2021/11/22 12:32:29;;;;;;;0.85;0.10;;;;;;;;;;5053584;28;20033;-66
2021/11/22 12:34:58;;;;;;;1.17;0.40;;;;;;;;;;5053359;28;20024;-65
2021/11/22 12:37:27;;;;;;;0.70;0.13;;;;;;;;;;5053531;28;20021;-66
2021/11/22 12:39:53;;;;;;;0.25;0.10;;;;;;;;;;5052416;28;20074;-66
2021/11/22 12:42:20;;;;;;;0.85;0.20;;;;;;;;;;5053322;28;20476;-65
2021/11/22 12:44:56;;;;;;;0.43;0.08;;;;;;;;;;5053425;28;20043;-65
2021/11/22 12:47:25;;;;;;;0.10;0.10;;;;;;;;;;5053413;28;20049;-66
2021/11/22 12:50:05;;;;;;;1.50;0.10;;;;;;;;;;5053376;28;20463;-65
2021/11/22 12:52:31;;;;;;;0.30;0.10;;;;;;;;;;5053372;28;20021;-66
2021/11/22 12:54:58;;;;;;;0.60;0.20;;;;;;;;;;5053138;28;20040;-66
2021/11/22 12:57:37;;;;;;;1.45;0.85;;;;;;;;;;5053371;28;20021;-65
2021/11/22 13:00:08;;;;;;;0.30;0.20;;;;;;;;;;5053169;28;20364;-66
2021/11/22 13:02:41;;;;;;;1.90;0.20;;;;;;;;;;5052998;28;20392;-66
2021/11/22 13:05:06;;;;;;;0.70;0.20;;;;;;;;;;5053152;28;20139;-65
2021/11/22 13:07:35;;;;;;;1.90;0.40;;;;;;;;;;5053292;28;20045;-65
2021/11/22 13:10:03;;;;;;;1.13;0.20;;;;;;;;;;5052902;28;20092;-67
2021/11/22 13:12:32;;;;;;;1.55;0.20;;;;;;;;;;5053078;28;20035;-66
2021/11/22 13:15:03;;;;;;;1.52;0.22;;;;;;;;;;5051704;28;20028;-65
2021/11/22 13:17:28;;;;;;;0.20;0.10;;;;;;;;;;5052926;28;20012;-66
2021/11/22 13:19:57;;;;;;;0.67;0.10;;;;;;;;;;5052849;28;20476;-65
2021/11/22 13:22:22;;;;;;;1.08;0.20;;;;;;;;;;5052778;28;20250;-66
2021/11/22 13:24:49;;;;;;;1.00;0.45;;;;;;;;;;5052756;28;20020;-65
2021/11/22 13:27:14;;;;;;;0.75;0.20;;;;;;;;;;5052913;28;20013;-67
2021/11/22 13:29:40;;;;;;;0.55;0.10;;;;;;;;;;5052829;28;20017;-66
2021/11/22 13:32:08;;;;;;;0.93;0.25;;;;;;;;;;5052973;28;20035;-66
2021/11/22 13:34:33;;;;;;;0.70;0.22;;;;;;;;;;5052732;28;20104;-65
2021/11/22 13:37:06;;;;;;;0.85;0.15;;;;;;;;;;5052618;28;20421;-66
2021/11/22 13:39:33;;;;;;;1.05;0.30;;;;;;;;;;5040697;28;20392;-66
2021/11/22 13:42:04;;;;;;;0.47;0.25;;;;;;;;;;5032721;28;20022;-65
2021/11/22 13:44:32;;;;;;;0.70;0.15;;;;;;;;;;5032544;28;20469;-66
2021/11/22 13:47:02;;;;;;;0.85;0.25;;;;;;;;;;5032606;28;20021;-66
2021/11/22 13:49:27;;;;;;;0.50;0.30;;;;;;;;;;5032641;28;20025;-66
2021/11/22 13:51:53;;;;;;;0.65;0.00;;;;;;;;;;5035944;28;20030;-65
2021/11/22 13:54:19;;;;;;;0.47;0.10;;;;;;;;;;5036488;28;20381;-66
2021/11/22 13:56:49;;;;;;;0.68;0.10;;;;;;;;;;5036853;28;20387;-66
2021/11/22 13:59:20;;;;;;;0.80;0.30;;;;;;;;;;5036351;28;20013;-65
2021/11/22 14:01:46;;;;;;;0.50;0.10;;;;;;;;;;5036291;28;20041;-66
2021/11/22 14:04:12;;;;;;;0.52;0.08;;;;;;;;;;5036352;28;20021;-66
2021/11/22 14:06:38;;;;;;;0.52;0.20;;;;;;;;;;5036488;28;20033;-66
2021/11/22 14:09:04;;;;;;;0.85;0.20;;;;;;;;;;5036399;28;20025;-66
2021/11/22 14:11:30;;;;;;;1.63;0.20;;;;;;;;;;5036345;28;20095;-66
2021/11/22 14:13:56;;;;;;;0.25;0.10;;;;;;;;;;5035973;28;20061;-66
2021/11/22 14:16:26;;;;;;;0.20;0.08;;;;;;;;;;5036226;28;20029;-66
2021/11/22 14:18:52;;;;;;;0.82;0.10;;;;;;;;;;5035478;28;20029;-66
2021/11/22 14:21:27;;;;;;;0.80;0.10;;;;;;;;;;5036181;28;20345;-66
2021/11/22 14:24:05;;;;;;;0.68;0.10;;;;;;;;;;5035960;28;20096;-65
2021/11/22 14:26:31;;;;;;;0.25;0.10;;;;;;;;;;5036187;28;20021;-67
2021/11/22 14:29:06;;;;;;;0.70;0.10;;;;;;;;;;5036079;28;20044;-66
2021/11/22 14:31:32;;;;;;;1.25;0.30;;;;;;;;;;5035992;28;20116;-66
2021/11/22 14:34:06;;;;;;;1.27;0.20;;;;;;;;;;5035960;28;20092;-66
2021/11/22 14:36:36;;;;;;;0.20;0.10;;;;;;;;;;5035903;28;20047;-66
2021/11/22 14:39:01;;;;;;;0.15;0.10;;;;;;;;;;5043323;28;20028;-65
2021/11/22 14:41:26;;;;;;;0.95;0.20;;;;;;;;;;5055819;28;20025;-67
2021/11/22 14:43:57;;;;;;;0.85;0.20;;;;;;;;;;5055748;28;20024;-65